This is the latest recevied weather packets stored in our database for station/object F4IDZ-11. If no packets are shown the sender has not sent any weather packets the latest 10 day(s).
| Time | Temp. | Humidity | Pressure | Rain* | Wind** | Luminosity | Snow |
|---|---|---|---|---|---|---|---|
| 1777577852 | 23.33° C | 41% | 997.4 hPa | - | - | - | - |
| 1777576952 | 24.44° C | 41% | 997.2 hPa | - | - | - | - |
| 1777576052 | 25° C | 40% | 997.1 hPa | - | - | - | - |
| 1777575152 | 25.56° C | 40% | 997 hPa | - | - | - | - |
| 1777574251 | 26.11° C | 39% | 996.8 hPa | - | - | - | - |
| 1777573351 | 26.67° C | 40% | 996.8 hPa | - | - | - | - |
| 1777572451 | 27.78° C | 39% | 996.6 hPa | - | - | - | - |
| 1777571551 | 28.33° C | 38% | 996.6 hPa | - | - | - | - |
| 1777570651 | 28.89° C | 38% | 996.5 hPa | - | - | - | - |
| 1777569751 | 28.89° C | 38% | 996.6 hPa | - | - | - | - |
| 1777568850 | 29.44° C | 37% | 996.5 hPa | - | - | - | - |
| 1777567950 | 30° C | 38% | 996.5 hPa | - | - | - | - |
| 1777567050 | 30.56° C | 37% | 996.5 hPa | - | - | - | - |
| 1777566150 | 30.56° C | 38% | 996.3 hPa | - | - | - | - |
| 1777565250 | 30.56° C | 37% | 996.3 hPa | - | - | - | - |
| 1777564349 | 30.56° C | 37% | 996.3 hPa | - | - | - | - |
| 1777563449 | 30.56° C | 37% | 996.2 hPa | - | - | - | - |
| 1777562549 | 30.56° C | 37% | 996.2 hPa | - | - | - | - |
| 1777561648 | 30.56° C | 37% | 996.1 hPa | - | - | - | - |
| 1777560748 | 30° C | 37% | 996.2 hPa | - | - | - | - |
| 1777559848 | 30° C | 37% | 996.1 hPa | - | - | - | - |
| 1777558948 | 29.44° C | 37% | 996.3 hPa | - | - | - | - |
| 1777558067 | 28.89° C | 38% | 996.2 hPa | - | - | - | - |
| 1777557167 | 28.89° C | 38% | 996.4 hPa | - | - | - | - |
| 1777556267 | 28.33° C | 38% | 996.4 hPa | - | - | - | - |
* Rain since midnight (hover to see other rain measurements)
** Current wind speed in m/s (hover to see current wind gust speed)